King Salmon Airport King Salmon US
ICAO: PAKN
IATA:
Category: Medium
Scheduled Services:

Elevation: 73 ft
TransAlt. 18000 ft.

Airport Communications:
HARMONY:140.1
ATIS:128.8
ANCHORAGE CNTR:124.8
CTAF:121.9
RDO:122.2
GND:121.9
OPS:37.22
PTD:37.22
TWR:118.3

PAKN Zoom In..

Runways:

(A) RW 12 length 8901 ft width 150 ft
ILS 110.30 / hdg 116

(B) RW 18 length 4018 ft width 100 ft
---- / hdg 180

(C) RW 30 length 8901 ft width 150 ft
---- / hdg 296

(D) RW 36 length 4018 ft width 100 ft
---- / hdg 360

Location; PAKN
Day. 13 / Time. 12.54 Zulu
* Altimeter: 29.85
* Temperature: 10° c. 50°f.
* Wind from: 000° Speed 00 kn.
Dewpoint: 09° c.
Visibility: 9 Statute Miles.
Clouds: Few 2500 ft.
Clouds: Scattered 4300 ft.
Clouds: Broken 6000 ft.

PAKN 131254Z 00000KT 9SM FEW025 SCT043 BKN060 10/09 A2985 RMK AO2 RAB32E42 SLP107 P0000 T01000089

Going to: --> -->


Wind - Calm.

 
 
jpsmedia worldairports.se 2020   terms of use